Flugplatz Adolf Würth

Bericht für EDTY

vom 03.07. um 21:50 UTC

Wind 4 kt aus 220°

Sichtweite 10 km oder mehr

aufgebrochene Bewölkung in 10000 ft

Temperatur 20.0°C

Taupunkt 13.0°C

Luftfeuchtigkeit 64%

Luftdruck 1018 hPa

EDTY 032150Z AUTO 22004KT 9999 // BKN100/// 20/13 Q1018

Prognose für EDTY

vom 03.07. um 17:00 UTC

Am 03.07. zwischen 18:00 UTC und 03:00 UTC

Wind 5 kt aus 290°

Sichtweite 10 km oder mehr

keine signifikanten Wettererscheinungen

keine Wolken

TAF EDTY 031700Z 0318/0403 29005KT CAVOK
Impressum